sensor_id;sensor_type;location;lat;lon;timestamp;P1;durP1;ratioP1;P2;durP2;ratioP2
16159;SDS011;8185;57.818;15.224;2022-12-07T00:01:49;4.57;;;2.40;;
16159;SDS011;8185;57.818;15.224;2022-12-07T00:04:16;5.63;;;2.80;;
16159;SDS011;8185;57.818;15.224;2022-12-07T00:06:45;3.40;;;2.30;;
16159;SDS011;8185;57.818;15.224;2022-12-07T00:09:14;4.87;;;2.40;;
16159;SDS011;8185;57.818;15.224;2022-12-07T00:11:44;4.73;;;2.50;;
16159;SDS011;8185;57.818;15.224;2022-12-07T00:14:14;5.97;;;2.53;;
16159;SDS011;8185;57.818;15.224;2022-12-07T00:16:43;4.63;;;2.40;;
16159;SDS011;8185;57.818;15.224;2022-12-07T00:19:10;5.10;;;2.27;;
16159;SDS011;8185;57.818;15.224;2022-12-07T00:21:39;5.93;;;2.63;;
16159;SDS011;8185;57.818;15.224;2022-12-07T00:24:06;5.43;;;2.40;;
16159;SDS011;8185;57.818;15.224;2022-12-07T00:26:34;3.93;;;2.43;;
16159;SDS011;8185;57.818;15.224;2022-12-07T00:29:05;5.43;;;2.37;;
16159;SDS011;8185;57.818;15.224;2022-12-07T00:31:34;4.00;;;2.30;;
16159;SDS011;8185;57.818;15.224;2022-12-07T00:34:04;3.37;;;2.10;;
16159;SDS011;8185;57.818;15.224;2022-12-07T00:36:32;7.93;;;2.23;;
16159;SDS011;8185;57.818;15.224;2022-12-07T00:38:59;3.87;;;2.17;;
16159;SDS011;8185;57.818;15.224;2022-12-07T00:41:28;5.20;;;2.43;;
16159;SDS011;8185;57.818;15.224;2022-12-07T00:43:56;4.20;;;2.40;;
16159;SDS011;8185;57.818;15.224;2022-12-07T00:46:24;7.00;;;2.63;;
16159;SDS011;8185;57.818;15.224;2022-12-07T00:48:52;3.53;;;2.10;;
16159;SDS011;8185;57.818;15.224;2022-12-07T00:51:21;8.70;;;2.67;;
16159;SDS011;8185;57.818;15.224;2022-12-07T00:53:49;4.57;;;2.20;;
16159;SDS011;8185;57.818;15.224;2022-12-07T00:56:18;3.77;;;2.30;;
16159;SDS011;8185;57.818;15.224;2022-12-07T00:58:49;7.10;;;2.17;;
16159;SDS011;8185;57.818;15.224;2022-12-07T01:01:18;5.83;;;2.00;;
16159;SDS011;8185;57.818;15.224;2022-12-07T01:03:46;4.87;;;2.00;;
16159;SDS011;8185;57.818;15.224;2022-12-07T01:06:14;6.27;;;2.20;;
16159;SDS011;8185;57.818;15.224;2022-12-07T01:08:42;3.90;;;2.10;;
16159;SDS011;8185;57.818;15.224;2022-12-07T01:11:12;5.87;;;1.93;;
16159;SDS011;8185;57.818;15.224;2022-12-07T01:13:42;3.60;;;2.40;;
16159;SDS011;8185;57.818;15.224;2022-12-07T01:16:11;5.40;;;2.53;;
16159;SDS011;8185;57.818;15.224;2022-12-07T01:18:39;4.10;;;2.00;;
16159;SDS011;8185;57.818;15.224;2022-12-07T01:21:09;7.03;;;2.40;;
16159;SDS011;8185;57.818;15.224;2022-12-07T01:23:38;8.33;;;2.30;;
16159;SDS011;8185;57.818;15.224;2022-12-07T01:26:06;9.07;;;2.43;;
16159;SDS011;8185;57.818;15.224;2022-12-07T01:28:37;5.27;;;2.10;;
16159;SDS011;8185;57.818;15.224;2022-12-07T01:31:05;4.77;;;2.07;;
16159;SDS011;8185;57.818;15.224;2022-12-07T01:33:35;3.80;;;1.90;;
16159;SDS011;8185;57.818;15.224;2022-12-07T01:36:03;4.93;;;2.60;;
16159;SDS011;8185;57.818;15.224;2022-12-07T01:38:32;3.57;;;2.10;;
16159;SDS011;8185;57.818;15.224;2022-12-07T01:41:00;7.43;;;1.83;;
16159;SDS011;8185;57.818;15.224;2022-12-07T01:43:30;4.07;;;2.00;;
16159;SDS011;8185;57.818;15.224;2022-12-07T01:45:58;5.13;;;2.00;;
16159;SDS011;8185;57.818;15.224;2022-12-07T01:48:30;4.77;;;1.93;;
16159;SDS011;8185;57.818;15.224;2022-12-07T01:51:01;5.57;;;2.10;;
16159;SDS011;8185;57.818;15.224;2022-12-07T01:53:33;6.03;;;2.50;;
16159;SDS011;8185;57.818;15.224;2022-12-07T01:56:04;4.43;;;2.00;;
16159;SDS011;8185;57.818;15.224;2022-12-07T01:58:35;4.30;;;1.70;;
16159;SDS011;8185;57.818;15.224;2022-12-07T02:01:03;6.33;;;2.37;;
16159;SDS011;8185;57.818;15.224;2022-12-07T02:03:32;5.40;;;2.17;;
16159;SDS011;8185;57.818;15.224;2022-12-07T02:06:04;4.97;;;1.80;;
16159;SDS011;8185;57.818;15.224;2022-12-07T02:08:34;4.70;;;1.97;;
16159;SDS011;8185;57.818;15.224;2022-12-07T02:11:01;4.30;;;2.17;;
16159;SDS011;8185;57.818;15.224;2022-12-07T02:13:31;5.23;;;1.70;;
16159;SDS011;8185;57.818;15.224;2022-12-07T02:16:04;4.87;;;1.93;;
16159;SDS011;8185;57.818;15.224;2022-12-07T02:18:44;5.73;;;2.27;;
16159;SDS011;8185;57.818;15.224;2022-12-07T02:21:24;5.80;;;2.47;;
16159;SDS011;8185;57.818;15.224;2022-12-07T02:30:05;7.77;;;2.10;;
16159;SDS011;8185;57.818;15.224;2022-12-07T02:32:38;7.40;;;2.13;;
16159;SDS011;8185;57.818;15.224;2022-12-07T02:35:11;4.07;;;1.90;;
16159;SDS011;8185;57.818;15.224;2022-12-07T02:37:43;4.90;;;2.27;;
16159;SDS011;8185;57.818;15.224;2022-12-07T02:40:18;3.43;;;2.00;;
16159;SDS011;8185;57.818;15.224;2022-12-07T02:42:50;5.43;;;2.13;;
16159;SDS011;8185;57.818;15.224;2022-12-07T02:45:23;4.47;;;2.10;;
16159;SDS011;8185;57.818;15.224;2022-12-07T02:47:54;4.83;;;2.10;;
16159;SDS011;8185;57.818;15.224;2022-12-07T02:50:25;4.87;;;1.70;;
16159;SDS011;8185;57.818;15.224;2022-12-07T02:52:53;4.33;;;1.90;;
16159;SDS011;8185;57.818;15.224;2022-12-07T02:55:22;3.10;;;1.90;;
16159;SDS011;8185;57.818;15.224;2022-12-07T02:58:03;7.07;;;2.20;;
16159;SDS011;8185;57.818;15.224;2022-12-07T03:00:41;4.67;;;2.00;;
16159;SDS011;8185;57.818;15.224;2022-12-07T03:03:21;4.50;;;2.07;;
16159;SDS011;8185;57.818;15.224;2022-12-07T03:05:54;3.23;;;2.10;;
16159;SDS011;8185;57.818;15.224;2022-12-07T03:08:34;4.63;;;2.20;;
16159;SDS011;8185;57.818;15.224;2022-12-07T03:11:10;4.53;;;2.00;;
16159;SDS011;8185;57.818;15.224;2022-12-07T03:13:45;4.33;;;1.73;;
16159;SDS011;8185;57.818;15.224;2022-12-07T03:16:18;4.90;;;2.00;;
16159;SDS011;8185;57.818;15.224;2022-12-07T03:18:49;4.40;;;1.90;;
16159;SDS011;8185;57.818;15.224;2022-12-07T03:21:21;4.07;;;1.80;;
16159;SDS011;8185;57.818;15.224;2022-12-07T03:23:53;4.87;;;2.17;;
16159;SDS011;8185;57.818;15.224;2022-12-07T03:26:23;5.20;;;1.83;;
16159;SDS011;8185;57.818;15.224;2022-12-07T03:28:56;4.77;;;1.97;;
16159;SDS011;8185;57.818;15.224;2022-12-07T03:31:31;3.70;;;1.80;;
16159;SDS011;8185;57.818;15.224;2022-12-07T03:34:01;3.00;;;1.53;;
16159;SDS011;8185;57.818;15.224;2022-12-07T03:36:34;4.70;;;1.57;;
16159;SDS011;8185;57.818;15.224;2022-12-07T03:39:08;5.80;;;1.83;;
16159;SDS011;8185;57.818;15.224;2022-12-07T03:41:43;5.07;;;1.77;;
16159;SDS011;8185;57.818;15.224;2022-12-07T03:44:10;5.67;;;2.20;;
16159;SDS011;8185;57.818;15.224;2022-12-07T03:46:41;2.77;;;1.50;;
16159;SDS011;8185;57.818;15.224;2022-12-07T03:49:14;7.97;;;2.20;;
16159;SDS011;8185;57.818;15.224;2022-12-07T03:51:53;4.90;;;2.20;;
16159;SDS011;8185;57.818;15.224;2022-12-07T03:54:24;3.10;;;2.07;;
16159;SDS011;8185;57.818;15.224;2022-12-07T03:56:56;5.13;;;2.03;;
16159;SDS011;8185;57.818;15.224;2022-12-07T03:59:25;2.90;;;1.80;;
16159;SDS011;8185;57.818;15.224;2022-12-07T04:01:56;3.57;;;1.97;;
16159;SDS011;8185;57.818;15.224;2022-12-07T04:04:29;5.53;;;2.10;;
16159;SDS011;8185;57.818;15.224;2022-12-07T04:06:56;4.67;;;1.97;;
16159;SDS011;8185;57.818;15.224;2022-12-07T04:09:23;5.70;;;2.20;;
16159;SDS011;8185;57.818;15.224;2022-12-07T04:11:51;4.83;;;2.07;;
16159;SDS011;8185;57.818;15.224;2022-12-07T04:14:18;6.00;;;1.83;;
16159;SDS011;8185;57.818;15.224;2022-12-07T04:16:46;3.73;;;2.23;;
16159;SDS011;8185;57.818;15.224;2022-12-07T04:19:16;5.83;;;2.10;;
16159;SDS011;8185;57.818;15.224;2022-12-07T04:21:44;5.13;;;1.80;;
16159;SDS011;8185;57.818;15.224;2022-12-07T04:24:12;4.53;;;2.03;;
16159;SDS011;8185;57.818;15.224;2022-12-07T04:26:40;3.60;;;1.90;;
16159;SDS011;8185;57.818;15.224;2022-12-07T04:29:07;4.60;;;1.97;;
16159;SDS011;8185;57.818;15.224;2022-12-07T04:31:35;8.87;;;2.20;;
16159;SDS011;8185;57.818;15.224;2022-12-07T04:34:03;5.47;;;2.93;;
16159;SDS011;8185;57.818;15.224;2022-12-07T04:36:33;8.50;;;2.17;;
16159;SDS011;8185;57.818;15.224;2022-12-07T04:39:00;3.70;;;2.33;;
16159;SDS011;8185;57.818;15.224;2022-12-07T04:41:28;3.07;;;2.00;;
16159;SDS011;8185;57.818;15.224;2022-12-07T04:43:55;5.03;;;1.87;;
16159;SDS011;8185;57.818;15.224;2022-12-07T04:46:24;5.73;;;2.00;;
16159;SDS011;8185;57.818;15.224;2022-12-07T04:48:52;6.53;;;2.07;;
16159;SDS011;8185;57.818;15.224;2022-12-07T04:51:20;4.97;;;2.23;;
16159;SDS011;8185;57.818;15.224;2022-12-07T04:53:51;5.27;;;2.00;;
16159;SDS011;8185;57.818;15.224;2022-12-07T04:56:19;6.10;;;2.10;;
16159;SDS011;8185;57.818;15.224;2022-12-07T04:58:46;2.90;;;1.90;;
16159;SDS011;8185;57.818;15.224;2022-12-07T05:01:14;3.67;;;1.90;;
16159;SDS011;8185;57.818;15.224;2022-12-07T05:03:43;6.27;;;2.23;;
16159;SDS011;8185;57.818;15.224;2022-12-07T05:06:10;5.80;;;2.30;;
16159;SDS011;8185;57.818;15.224;2022-12-07T05:08:38;8.37;;;2.80;;
16159;SDS011;8185;57.818;15.224;2022-12-07T05:11:09;5.37;;;2.33;;
16159;SDS011;8185;57.818;15.224;2022-12-07T05:13:59;5.27;;;2.30;;
16159;SDS011;8185;57.818;15.224;2022-12-07T05:16:26;4.47;;;2.30;;
16159;SDS011;8185;57.818;15.224;2022-12-07T05:18:54;7.27;;;2.27;;
16159;SDS011;8185;57.818;15.224;2022-12-07T05:21:21;6.20;;;3.10;;
16159;SDS011;8185;57.818;15.224;2022-12-07T05:23:48;7.07;;;3.10;;
16159;SDS011;8185;57.818;15.224;2022-12-07T05:26:17;7.50;;;3.50;;
16159;SDS011;8185;57.818;15.224;2022-12-07T05:28:45;5.63;;;3.50;;
16159;SDS011;8185;57.818;15.224;2022-12-07T05:31:16;12.03;;;3.10;;
16159;SDS011;8185;57.818;15.224;2022-12-07T05:33:43;6.00;;;2.93;;
16159;SDS011;8185;57.818;15.224;2022-12-07T05:36:10;6.63;;;2.97;;
16159;SDS011;8185;57.818;15.224;2022-12-07T05:38:37;4.47;;;2.73;;
16159;SDS011;8185;57.818;15.224;2022-12-07T05:41:05;9.50;;;4.00;;
16159;SDS011;8185;57.818;15.224;2022-12-07T05:43:55;6.77;;;3.50;;
16159;SDS011;8185;57.818;15.224;2022-12-07T05:46:22;8.80;;;3.40;;
16159;SDS011;8185;57.818;15.224;2022-12-07T05:48:49;5.57;;;3.40;;
16159;SDS011;8185;57.818;15.224;2022-12-07T05:51:16;7.00;;;3.40;;
16159;SDS011;8185;57.818;15.224;2022-12-07T05:53:44;7.23;;;3.20;;
16159;SDS011;8185;57.818;15.224;2022-12-07T05:56:11;6.87;;;3.87;;
16159;SDS011;8185;57.818;15.224;2022-12-07T05:58:38;7.57;;;3.10;;
16159;SDS011;8185;57.818;15.224;2022-12-07T06:01:25;8.53;;;3.57;;
16159;SDS011;8185;57.818;15.224;2022-12-07T06:03:52;6.30;;;3.53;;
16159;SDS011;8185;57.818;15.224;2022-12-07T06:06:19;7.77;;;3.80;;
16159;SDS011;8185;57.818;15.224;2022-12-07T06:08:47;5.90;;;3.90;;
16159;SDS011;8185;57.818;15.224;2022-12-07T06:11:14;9.03;;;5.00;;
16159;SDS011;8185;57.818;15.224;2022-12-07T06:13:59;7.07;;;4.40;;
16159;SDS011;8185;57.818;15.224;2022-12-07T06:16:28;8.03;;;4.13;;
16159;SDS011;8185;57.818;15.224;2022-12-07T06:18:55;7.77;;;4.60;;
16159;SDS011;8185;57.818;15.224;2022-12-07T06:21:22;10.83;;;4.30;;
16159;SDS011;8185;57.818;15.224;2022-12-07T06:23:51;11.07;;;5.10;;
16159;SDS011;8185;57.818;15.224;2022-12-07T06:26:18;10.17;;;3.93;;
16159;SDS011;8185;57.818;15.224;2022-12-07T06:28:45;12.77;;;4.80;;
16159;SDS011;8185;57.818;15.224;2022-12-07T06:31:12;7.87;;;4.40;;
16159;SDS011;8185;57.818;15.224;2022-12-07T06:33:41;8.70;;;4.87;;
16159;SDS011;8185;57.818;15.224;2022-12-07T06:36:09;13.03;;;5.33;;
16159;SDS011;8185;57.818;15.224;2022-12-07T06:38:36;10.73;;;5.00;;
16159;SDS011;8185;57.818;15.224;2022-12-07T06:41:04;9.23;;;4.43;;
16159;SDS011;8185;57.818;15.224;2022-12-07T06:43:31;11.47;;;5.27;;
16159;SDS011;8185;57.818;15.224;2022-12-07T06:45:59;9.20;;;4.50;;
16159;SDS011;8185;57.818;15.224;2022-12-07T06:48:26;13.60;;;4.87;;
16159;SDS011;8185;57.818;15.224;2022-12-07T06:50:55;8.87;;;3.97;;
16159;SDS011;8185;57.818;15.224;2022-12-07T06:53:22;8.57;;;4.50;;
16159;SDS011;8185;57.818;15.224;2022-12-07T06:55:49;8.20;;;4.73;;
16159;SDS011;8185;57.818;15.224;2022-12-07T06:58:17;8.70;;;4.37;;
16159;SDS011;8185;57.818;15.224;2022-12-07T07:00:44;10.87;;;4.40;;
16159;SDS011;8185;57.818;15.224;2022-12-07T07:03:12;9.33;;;3.97;;
16159;SDS011;8185;57.818;15.224;2022-12-07T07:05:39;9.83;;;4.27;;
16159;SDS011;8185;57.818;15.224;2022-12-07T07:08:08;7.70;;;4.23;;
16159;SDS011;8185;57.818;15.224;2022-12-07T07:10:35;11.37;;;4.33;;
16159;SDS011;8185;57.818;15.224;2022-12-07T07:13:03;13.50;;;4.83;;
16159;SDS011;8185;57.818;15.224;2022-12-07T07:15:30;5.53;;;4.30;;
16159;SDS011;8185;57.818;15.224;2022-12-07T07:17:58;5.77;;;3.63;;
16159;SDS011;8185;57.818;15.224;2022-12-07T07:20:25;7.87;;;4.50;;
16159;SDS011;8185;57.818;15.224;2022-12-07T07:22:54;6.83;;;4.13;;
16159;SDS011;8185;57.818;15.224;2022-12-07T07:25:23;7.87;;;4.23;;
16159;SDS011;8185;57.818;15.224;2022-12-07T07:27:50;12.13;;;4.80;;
16159;SDS011;8185;57.818;15.224;2022-12-07T07:30:18;9.03;;;4.53;;
16159;SDS011;8185;57.818;15.224;2022-12-07T07:32:45;9.43;;;4.87;;
16159;SDS011;8185;57.818;15.224;2022-12-07T07:35:12;11.03;;;4.27;;
16159;SDS011;8185;57.818;15.224;2022-12-07T07:37:39;9.43;;;4.33;;
16159;SDS011;8185;57.818;15.224;2022-12-07T07:40:07;7.93;;;4.40;;
16159;SDS011;8185;57.818;15.224;2022-12-07T07:42:36;10.53;;;4.23;;
16159;SDS011;8185;57.818;15.224;2022-12-07T07:45:04;8.90;;;4.43;;
16159;SDS011;8185;57.818;15.224;2022-12-07T07:47:32;7.30;;;4.33;;
16159;SDS011;8185;57.818;15.224;2022-12-07T07:49:59;8.43;;;4.53;;
16159;SDS011;8185;57.818;15.224;2022-12-07T07:52:26;12.27;;;4.53;;
16159;SDS011;8185;57.818;15.224;2022-12-07T07:54:53;10.30;;;4.57;;
16159;SDS011;8185;57.818;15.224;2022-12-07T07:57:21;9.20;;;4.40;;
16159;SDS011;8185;57.818;15.224;2022-12-07T07:59:49;10.50;;;4.50;;
16159;SDS011;8185;57.818;15.224;2022-12-07T08:02:17;8.33;;;4.20;;
16159;SDS011;8185;57.818;15.224;2022-12-07T08:04:46;7.73;;;3.80;;
16159;SDS011;8185;57.818;15.224;2022-12-07T08:07:13;6.70;;;3.50;;
16159;SDS011;8185;57.818;15.224;2022-12-07T08:09:41;6.87;;;3.70;;
16159;SDS011;8185;57.818;15.224;2022-12-07T08:12:08;8.07;;;3.97;;
16159;SDS011;8185;57.818;15.224;2022-12-07T08:14:35;6.97;;;3.57;;
16159;SDS011;8185;57.818;15.224;2022-12-07T08:17:04;8.40;;;4.00;;
16159;SDS011;8185;57.818;15.224;2022-12-07T08:19:31;6.37;;;3.50;;
16159;SDS011;8185;57.818;15.224;2022-12-07T08:21:59;7.67;;;3.67;;
16159;SDS011;8185;57.818;15.224;2022-12-07T08:24:27;8.60;;;3.90;;
16159;SDS011;8185;57.818;15.224;2022-12-07T08:26:54;5.83;;;4.13;;
16159;SDS011;8185;57.818;15.224;2022-12-07T08:29:21;7.47;;;3.93;;
16159;SDS011;8185;57.818;15.224;2022-12-07T08:31:48;10.20;;;4.10;;
16159;SDS011;8185;57.818;15.224;2022-12-07T08:34:17;9.80;;;3.93;;
16159;SDS011;8185;57.818;15.224;2022-12-07T08:36:44;6.93;;;3.57;;
16159;SDS011;8185;57.818;15.224;2022-12-07T08:39:11;5.30;;;3.80;;
16159;SDS011;8185;57.818;15.224;2022-12-07T08:41:39;7.07;;;3.97;;
16159;SDS011;8185;57.818;15.224;2022-12-07T08:44:06;7.97;;;3.70;;
16159;SDS011;8185;57.818;15.224;2022-12-07T08:46:34;6.90;;;4.10;;
16159;SDS011;8185;57.818;15.224;2022-12-07T08:49:04;6.93;;;4.20;;
16159;SDS011;8185;57.818;15.224;2022-12-07T08:51:35;9.40;;;4.87;;
16159;SDS011;8185;57.818;15.224;2022-12-07T08:54:03;9.10;;;5.20;;
16159;SDS011;8185;57.818;15.224;2022-12-07T08:56:33;8.13;;;3.53;;
16159;SDS011;8185;57.818;15.224;2022-12-07T08:59:01;7.27;;;3.80;;
16159;SDS011;8185;57.818;15.224;2022-12-07T09:01:29;5.97;;;3.33;;
16159;SDS011;8185;57.818;15.224;2022-12-07T09:03:56;5.90;;;3.17;;
16159;SDS011;8185;57.818;15.224;2022-12-07T09:06:24;6.57;;;2.93;;
16159;SDS011;8185;57.818;15.224;2022-12-07T09:08:53;5.33;;;3.23;;
16159;SDS011;8185;57.818;15.224;2022-12-07T09:11:24;4.73;;;2.90;;
16159;SDS011;8185;57.818;15.224;2022-12-07T09:13:51;6.73;;;3.00;;
16159;SDS011;8185;57.818;15.224;2022-12-07T09:16:19;6.80;;;3.13;;
16159;SDS011;8185;57.818;15.224;2022-12-07T09:18:46;6.23;;;3.20;;
16159;SDS011;8185;57.818;15.224;2022-12-07T09:21:13;4.97;;;3.17;;
16159;SDS011;8185;57.818;15.224;2022-12-07T09:23:40;5.17;;;3.10;;
16159;SDS011;8185;57.818;15.224;2022-12-07T09:26:09;6.70;;;3.50;;
16159;SDS011;8185;57.818;15.224;2022-12-07T09:28:36;6.60;;;3.43;;
16159;SDS011;8185;57.818;15.224;2022-12-07T09:31:04;5.07;;;3.20;;
16159;SDS011;8185;57.818;15.224;2022-12-07T09:33:32;5.13;;;2.87;;
16159;SDS011;8185;57.818;15.224;2022-12-07T09:35:59;5.57;;;2.90;;
16159;SDS011;8185;57.818;15.224;2022-12-07T09:38:27;5.57;;;2.87;;
16159;SDS011;8185;57.818;15.224;2022-12-07T09:40:56;5.83;;;2.60;;
16159;SDS011;8185;57.818;15.224;2022-12-07T09:43:25;5.73;;;3.00;;
16159;SDS011;8185;57.818;15.224;2022-12-07T09:45:53;6.03;;;2.77;;
16159;SDS011;8185;57.818;15.224;2022-12-07T09:48:23;5.30;;;2.77;;
16159;SDS011;8185;57.818;15.224;2022-12-07T09:50:56;5.27;;;2.90;;
16159;SDS011;8185;57.818;15.224;2022-12-07T09:53:25;3.23;;;2.63;;
16159;SDS011;8185;57.818;15.224;2022-12-07T09:55:55;4.93;;;3.40;;
16159;SDS011;8185;57.818;15.224;2022-12-07T09:58:25;4.00;;;3.10;;
16159;SDS011;8185;57.818;15.224;2022-12-07T10:00:55;5.70;;;3.27;;
16159;SDS011;8185;57.818;15.224;2022-12-07T10:03:25;5.73;;;3.43;;
16159;SDS011;8185;57.818;15.224;2022-12-07T10:05:53;6.53;;;3.03;;
16159;SDS011;8185;57.818;15.224;2022-12-07T10:08:21;4.47;;;2.57;;
16159;SDS011;8185;57.818;15.224;2022-12-07T10:10:50;3.80;;;2.57;;
16159;SDS011;8185;57.818;15.224;2022-12-07T10:13:19;6.53;;;2.57;;
16159;SDS011;8185;57.818;15.224;2022-12-07T10:15:51;6.83;;;3.00;;
16159;SDS011;8185;57.818;15.224;2022-12-07T10:18:21;5.37;;;3.47;;
16159;SDS011;8185;57.818;15.224;2022-12-07T10:21:04;6.87;;;3.43;;
16159;SDS011;8185;57.818;15.224;2022-12-07T10:23:40;5.77;;;3.90;;
16159;SDS011;8185;57.818;15.224;2022-12-07T10:28:58;7.47;;;4.27;;
16159;SDS011;8185;57.818;15.224;2022-12-07T10:31:28;5.53;;;3.40;;
16159;SDS011;8185;57.818;15.224;2022-12-07T10:33:57;6.07;;;3.83;;
16159;SDS011;8185;57.818;15.224;2022-12-07T10:36:27;4.63;;;3.30;;
16159;SDS011;8185;57.818;15.224;2022-12-07T10:39:02;5.80;;;3.13;;
16159;SDS011;8185;57.818;15.224;2022-12-07T10:41:41;4.87;;;2.60;;
16159;SDS011;8185;57.818;15.224;2022-12-07T10:44:22;4.73;;;3.13;;
16159;SDS011;8185;57.818;15.224;2022-12-07T10:52:58;6.37;;;2.50;;
16159;SDS011;8185;57.818;15.224;2022-12-07T10:55:34;6.93;;;2.40;;
16159;SDS011;8185;57.818;15.224;2022-12-07T10:58:16;4.10;;;2.23;;
16159;SDS011;8185;57.818;15.224;2022-12-07T11:00:55;5.30;;;2.60;;
16159;SDS011;8185;57.818;15.224;2022-12-07T11:06:33;4.57;;;1.80;;
16159;SDS011;8185;57.818;15.224;2022-12-07T11:09:08;5.17;;;2.30;;
16159;SDS011;8185;57.818;15.224;2022-12-07T11:11:57;5.80;;;2.50;;
16159;SDS011;8185;57.818;15.224;2022-12-07T11:14:31;3.43;;;2.07;;
16159;SDS011;8185;57.818;15.224;2022-12-07T11:17:08;3.40;;;2.50;;
16159;SDS011;8185;57.818;15.224;2022-12-07T11:19:48;5.10;;;2.37;;
16159;SDS011;8185;57.818;15.224;2022-12-07T11:22:26;5.43;;;2.30;;
16159;SDS011;8185;57.818;15.224;2022-12-07T11:25:09;2.97;;;2.57;;
16159;SDS011;8185;57.818;15.224;2022-12-07T11:27:44;4.50;;;3.07;;
16159;SDS011;8185;57.818;15.224;2022-12-07T11:30:23;2.97;;;2.67;;
16159;SDS011;8185;57.818;15.224;2022-12-07T11:33:01;3.30;;;2.60;;
16159;SDS011;8185;57.818;15.224;2022-12-07T11:35:46;3.93;;;2.50;;
16159;SDS011;8185;57.818;15.224;2022-12-07T11:38:34;4.33;;;2.40;;
16159;SDS011;8185;57.818;15.224;2022-12-07T11:41:09;4.53;;;2.97;;
16159;SDS011;8185;57.818;15.224;2022-12-07T11:43:47;3.67;;;2.53;;
16159;SDS011;8185;57.818;15.224;2022-12-07T11:46:19;12.80;;;2.50;;
16159;SDS011;8185;57.818;15.224;2022-12-07T11:48:50;3.90;;;2.47;;
16159;SDS011;8185;57.818;15.224;2022-12-07T11:51:23;4.50;;;2.30;;
16159;SDS011;8185;57.818;15.224;2022-12-07T11:53:54;3.37;;;2.43;;
16159;SDS011;8185;57.818;15.224;2022-12-07T11:56:27;4.70;;;2.40;;
16159;SDS011;8185;57.818;15.224;2022-12-07T11:58:56;1.90;;;1.70;;
16159;SDS011;8185;57.818;15.224;2022-12-07T12:01:32;2.27;;;1.80;;
16159;SDS011;8185;57.818;15.224;2022-12-07T12:04:14;3.97;;;2.20;;
16159;SDS011;8185;57.818;15.224;2022-12-07T12:06:53;2.97;;;2.00;;
16159;SDS011;8185;57.818;15.224;2022-12-07T12:09:23;3.83;;;1.80;;
16159;SDS011;8185;57.818;15.224;2022-12-07T12:12:07;2.50;;;1.70;;
16159;SDS011;8185;57.818;15.224;2022-12-07T12:14:50;3.23;;;1.90;;
16159;SDS011;8185;57.818;15.224;2022-12-07T12:17:30;6.50;;;2.53;;
16159;SDS011;8185;57.818;15.224;2022-12-07T12:20:28;3.70;;;2.13;;
16159;SDS011;8185;57.818;15.224;2022-12-07T12:23:00;2.70;;;1.87;;
16159;SDS011;8185;57.818;15.224;2022-12-07T12:25:38;4.73;;;2.00;;
16159;SDS011;8185;57.818;15.224;2022-12-07T12:28:18;3.77;;;2.00;;
16159;SDS011;8185;57.818;15.224;2022-12-07T12:31:04;5.60;;;2.20;;
16159;SDS011;8185;57.818;15.224;2022-12-07T12:33:37;3.77;;;1.80;;
16159;SDS011;8185;57.818;15.224;2022-12-07T12:36:23;5.80;;;2.10;;
16159;SDS011;8185;57.818;15.224;2022-12-07T12:38:52;2.77;;;1.90;;
16159;SDS011;8185;57.818;15.224;2022-12-07T12:41:54;4.17;;;1.83;;
16159;SDS011;8185;57.818;15.224;2022-12-07T12:51:35;3.03;;;1.90;;
16159;SDS011;8185;57.818;15.224;2022-12-07T12:54:03;5.27;;;2.20;;
16159;SDS011;8185;57.818;15.224;2022-12-07T12:56:35;2.67;;;1.73;;
16159;SDS011;8185;57.818;15.224;2022-12-07T12:59:21;7.10;;;2.53;;
16159;SDS011;8185;57.818;15.224;2022-12-07T13:01:50;4.60;;;2.27;;
16159;SDS011;8185;57.818;15.224;2022-12-07T13:04:34;5.67;;;2.17;;
16159;SDS011;8185;57.818;15.224;2022-12-07T13:10:21;3.27;;;2.10;;
16159;SDS011;8185;57.818;15.224;2022-12-07T13:18:57;3.50;;;2.03;;
16159;SDS011;8185;57.818;15.224;2022-12-07T13:21:40;6.10;;;2.47;;
16159;SDS011;8185;57.818;15.224;2022-12-07T13:24:10;4.03;;;2.70;;
16159;SDS011;8185;57.818;15.224;2022-12-07T13:26:39;3.57;;;2.40;;
16159;SDS011;8185;57.818;15.224;2022-12-07T13:29:11;4.90;;;1.93;;
16159;SDS011;8185;57.818;15.224;2022-12-07T13:31:41;4.80;;;2.60;;
16159;SDS011;8185;57.818;15.224;2022-12-07T13:34:30;3.53;;;2.47;;
16159;SDS011;8185;57.818;15.224;2022-12-07T13:36:59;3.03;;;2.00;;
16159;SDS011;8185;57.818;15.224;2022-12-07T13:39:28;4.87;;;2.27;;
16159;SDS011;8185;57.818;15.224;2022-12-07T13:41:57;3.07;;;2.20;;
16159;SDS011;8185;57.818;15.224;2022-12-07T13:44:27;4.87;;;2.30;;
16159;SDS011;8185;57.818;15.224;2022-12-07T13:47:01;3.40;;;2.10;;
16159;SDS011;8185;57.818;15.224;2022-12-07T13:49:37;3.40;;;2.40;;
16159;SDS011;8185;57.818;15.224;2022-12-07T13:52:16;6.37;;;2.90;;
16159;SDS011;8185;57.818;15.224;2022-12-07T13:54:45;4.60;;;2.50;;
16159;SDS011;8185;57.818;15.224;2022-12-07T13:57:14;4.63;;;2.60;;
16159;SDS011;8185;57.818;15.224;2022-12-07T13:59:42;2.97;;;2.53;;
16159;SDS011;8185;57.818;15.224;2022-12-07T14:02:19;5.03;;;3.03;;
16159;SDS011;8185;57.818;15.224;2022-12-07T14:04:51;3.43;;;2.33;;
16159;SDS011;8185;57.818;15.224;2022-12-07T14:07:20;3.97;;;2.47;;
16159;SDS011;8185;57.818;15.224;2022-12-07T14:09:56;3.77;;;2.47;;
16159;SDS011;8185;57.818;15.224;2022-12-07T14:12:25;3.90;;;2.20;;
16159;SDS011;8185;57.818;15.224;2022-12-07T14:14:55;3.73;;;2.43;;
16159;SDS011;8185;57.818;15.224;2022-12-07T14:17:23;3.37;;;2.13;;
16159;SDS011;8185;57.818;15.224;2022-12-07T14:19:54;3.27;;;2.27;;
16159;SDS011;8185;57.818;15.224;2022-12-07T14:22:26;2.57;;;2.17;;
16159;SDS011;8185;57.818;15.224;2022-12-07T14:25:00;3.13;;;2.20;;
16159;SDS011;8185;57.818;15.224;2022-12-07T14:27:48;3.17;;;2.50;;
16159;SDS011;8185;57.818;15.224;2022-12-07T14:30:22;2.47;;;2.10;;
16159;SDS011;8185;57.818;15.224;2022-12-07T14:32:51;4.93;;;2.40;;
16159;SDS011;8185;57.818;15.224;2022-12-07T14:35:22;3.83;;;2.50;;
16159;SDS011;8185;57.818;15.224;2022-12-07T14:37:49;3.33;;;2.10;;
16159;SDS011;8185;57.818;15.224;2022-12-07T14:40:18;4.80;;;2.63;;
16159;SDS011;8185;57.818;15.224;2022-12-07T14:42:47;4.47;;;2.40;;
16159;SDS011;8185;57.818;15.224;2022-12-07T14:45:19;6.23;;;2.30;;
16159;SDS011;8185;57.818;15.224;2022-12-07T14:47:47;3.93;;;2.30;;
16159;SDS011;8185;57.818;15.224;2022-12-07T14:50:15;4.73;;;2.47;;
16159;SDS011;8185;57.818;15.224;2022-12-07T14:52:47;3.73;;;2.53;;
16159;SDS011;8185;57.818;15.224;2022-12-07T14:55:20;5.77;;;2.60;;
16159;SDS011;8185;57.818;15.224;2022-12-07T14:57:50;4.83;;;2.40;;
16159;SDS011;8185;57.818;15.224;2022-12-07T15:00:18;6.47;;;3.00;;
16159;SDS011;8185;57.818;15.224;2022-12-07T15:02:47;3.93;;;2.40;;
16159;SDS011;8185;57.818;15.224;2022-12-07T15:05:15;7.43;;;2.90;;
16159;SDS011;8185;57.818;15.224;2022-12-07T15:07:43;2.73;;;2.47;;
16159;SDS011;8185;57.818;15.224;2022-12-07T15:10:14;3.47;;;2.40;;
16159;SDS011;8185;57.818;15.224;2022-12-07T15:12:44;5.33;;;2.57;;
16159;SDS011;8185;57.818;15.224;2022-12-07T15:15:11;5.63;;;2.37;;
16159;SDS011;8185;57.818;15.224;2022-12-07T15:17:39;3.10;;;2.37;;
16159;SDS011;8185;57.818;15.224;2022-12-07T15:20:08;4.50;;;2.50;;
16159;SDS011;8185;57.818;15.224;2022-12-07T15:22:38;4.10;;;2.50;;
16159;SDS011;8185;57.818;15.224;2022-12-07T15:25:06;2.87;;;2.20;;
16159;SDS011;8185;57.818;15.224;2022-12-07T15:27:36;4.13;;;2.67;;
16159;SDS011;8185;57.818;15.224;2022-12-07T15:30:03;5.63;;;3.23;;
16159;SDS011;8185;57.818;15.224;2022-12-07T15:32:31;4.13;;;2.77;;
16159;SDS011;8185;57.818;15.224;2022-12-07T15:34:58;3.97;;;2.13;;
16159;SDS011;8185;57.818;15.224;2022-12-07T15:37:26;5.50;;;2.47;;
16159;SDS011;8185;57.818;15.224;2022-12-07T15:39:53;5.17;;;2.67;;
16159;SDS011;8185;57.818;15.224;2022-12-07T15:42:20;4.47;;;2.40;;
16159;SDS011;8185;57.818;15.224;2022-12-07T15:44:49;6.37;;;2.77;;